WetterOnline ( https://www.wetteronline.de )

Wetter aktuell Osnabrück

Aktuelles Wetter: Belm (103m)

6-stündlich | Neueste Meldungen
Ortszeit Temperatur Wetter
Fr, 24.05. 14:00 22.1° C wolkig
Fr, 24.05. 8:00 13.7° C wolkig
Fr, 24.05. 2:00 11.4° C bedeckt
Do, 23.05. 20:00 19.5° C wolkig
Do, 23.05. 14:00 19.6° C leicht bewölkt
Do, 23.05. 8:00 9.6° C leicht bewölkt
Do, 23.05. 2:00 8.2° C bedeckt
Mi, 22.05. 20:00 16.3° C wolkig
Ortszeit Temperatur Wetter
Fr, 24.05. 19:30 20.0° C wolkig
Fr, 24.05. 19:20 20.0° C wolkig
Fr, 24.05. 19:10 20.4° C wolkig
Fr, 24.05. 19:00 20.5° C wolkig
Fr, 24.05. 18:50 20.5° C wolkig
Fr, 24.05. 18:40 20.2° C wolkig
Fr, 24.05. 18:30 20.7° C bewölkt
Fr, 24.05. 18:00 21.7° C bewölkt
Fr, 24.05. 17:30 21.1° C bewölkt
Fr, 24.05. 17:00 21.4° C bewölkt
Fr, 24.05. 16:30 21.9° C wolkig
Ortszeit Relative Feuchte Sichtweite
Fr, 24.05. 14:00 45% 21 km
Fr, 24.05. 8:00 67% 12 km
Fr, 24.05. 2:00 75% 13 km
Do, 23.05. 20:00 42% 26 km
Do, 23.05. 14:00 42% 29 km
Do, 23.05. 8:00 80% 13 km
Do, 23.05. 2:00 81% 25 km
Mi, 22.05. 20:00 53% 50 km
Ortszeit Relative Feuchte Sichtweite
Fr, 24.05. 19:30 45% 35 km
Fr, 24.05. 19:20 45% -
Fr, 24.05. 19:10 49% -
Fr, 24.05. 19:00 48% 30 km
Fr, 24.05. 18:50 48% -
Fr, 24.05. 18:40 49% -
Fr, 24.05. 18:30 46% 30 km
Fr, 24.05. 18:00 41% 30 km
Fr, 24.05. 17:30 40% 30 km
Fr, 24.05. 17:00 41% 30 km
Fr, 24.05. 16:30 43% 27 km
Ortszeit Niederschlagsmenge Niederschlagsart
Fr, 24.05. 14:00 0.0 l/m2 in 6 Std. -
Fr, 24.05. 8:00 0.0 l/m2 in 12 Std. -
Fr, 24.05. 2:00 0.0 l/m2 in 6 Std. -
Do, 23.05. 20:00 0.0 l/m2 in 12 Std. -
Do, 23.05. 14:00 0.0 l/m2 in 6 Std. -
Do, 23.05. 8:00 0.0 l/m2 in 12 Std. -
Do, 23.05. 2:00 0.0 l/m2 in 6 Std. -
Mi, 22.05. 20:00 0.2 l/m2 in 12 Std. -
Ortszeit Niederschlagsmenge Niederschlagsart
Fr, 24.05. 19:30 0.0 l/m2 in 1 Std. -
Fr, 24.05. 19:20 keine Meldung -
Fr, 24.05. 19:10 keine Meldung -
Fr, 24.05. 19:00 0.0 l/m2 in 1 Std. -
Fr, 24.05. 18:50 keine Meldung -
Fr, 24.05. 18:40 keine Meldung -
Fr, 24.05. 18:30 0.0 l/m2 in 1 Std. -
Fr, 24.05. 18:00 0.0 l/m2 in 1 Std. -
Fr, 24.05. 17:30 0.0 l/m2 in 1 Std. -
Fr, 24.05. 17:00 0.0 l/m2 in 1 Std. -
Fr, 24.05. 16:30 0.0 l/m2 in 1 Std. -
Ortszeit Stärke Spitze Richtung
km/h Bft. km/h Grad Sektor
Fr, 24.05. 14:00 20 4 35 250° W
Fr, 24.05. 8:00 6 1 9 170° S
Fr, 24.05. 2:00 0 0 25 - -
Do, 23.05. 20:00 11 2 25 220° SW
Do, 23.05. 14:00 13 3 28 190° S
Do, 23.05. 8:00 0 0 4 - -
Do, 23.05. 2:00 0 0 29 - -
Mi, 22.05. 20:00 13 3 31 310° NW
Ortszeit Stärke Spitze Richtung
km/h Bft. km/h Grad Sektor
Fr, 24.05. 19:30 18 3 32 300° NW
Fr, 24.05. 19:20 18 3 - 300° NW
Fr, 24.05. 19:10 13 3 - 330° NW
Fr, 24.05. 19:00 13 3 39 340° N
Fr, 24.05. 18:50 13 3 - 340° N
Fr, 24.05. 18:40 15 3 - 330° NW
Fr, 24.05. 18:30 17 3 39 310° NW
Fr, 24.05. 18:00 22 4 40 300° NW
Fr, 24.05. 17:30 22 4 40 290° W
Fr, 24.05. 17:00 22 4 32 290° W
Fr, 24.05. 16:30 24 4 33 290° W
Ortszeit Untergrenze Bedeckung Gattung
total tief tief mittel hoch
Fr, 24.05. 14:00 1500 m 7/8 4/8 - - -
Fr, 24.05. 8:00 4500 m 8/8 8/8 - - -
Fr, 24.05. 2:00 5400 m 8/8 8/8 - - -
Do, 23.05. 20:00 2400 m 8/8 1/8 - - -
Do, 23.05. 14:00 1500 m 5/8 2/8 - - -
Do, 23.05. 8:00 10500 m 4/8 0/8 - - -
Do, 23.05. 2:00 5700 m 8/8 8/8 - - -
Mi, 22.05. 20:00 1500 m 5/8 5/8 - - -
Ortszeit Bedeckungsgrad in Achtel und Wolkenuntergrenze
Fr, 24.05. 19:30 1(1800m) 5(9000m) 7(9000m)
Fr, 24.05. 19:20 1(1800m) 5(9000m) 7(9000m)
Fr, 24.05. 19:10 1(1800m) 5(9000m) 7(9000m)
Fr, 24.05. 19:00 3(1800m) 7(8700m) 7(9000m)
Fr, 24.05. 18:50 3(1800m) 7(8700m) 7(9000m)
Fr, 24.05. 18:40 3(1800m) 6(9000m) 7(9000m)
Fr, 24.05. 18:30 6(2100m) 7(9000m) 7(9000m)
Fr, 24.05. 18:00 3(1800m) 6(2700m) 7(9000m)
Fr, 24.05. 17:30 3(1800m) 7(2700m) 7(9000m)
Fr, 24.05. 17:00 5(1800m) 6(2100m) 7(2700m)
Fr, 24.05. 16:30 3(1800m) 4(2100m) 5(2700m)
Ortszeit Luftdruck NN (hPa) Tendenz (hPa in 3 Std.)
Fr, 24.05. 14:00 1013 - 0,8
Fr, 24.05. 8:00 1015 0,0
Fr, 24.05. 2:00 1016 - 0,4
Do, 23.05. 20:00 1016 - 1,1
Do, 23.05. 14:00 1018 - 1,4
Do, 23.05. 8:00 1020 0,0
Do, 23.05. 2:00 1020 + 0,5
Mi, 22.05. 20:00 1018 0,0
Ortszeit Luftdruck NN (hPa) Tendenz (hPa in 3 Std.)
Fr, 24.05. 19:30 1013 0,0
Fr, 24.05. 19:20 1013 keine Meldung
Fr, 24.05. 19:10 1013 keine Meldung
Fr, 24.05. 19:00 1013 - 0,3
Fr, 24.05. 18:50 1013 keine Meldung
Fr, 24.05. 18:40 1013 keine Meldung
Fr, 24.05. 18:30 1012 - 0,5
Fr, 24.05. 18:00 1012 - 0,7
Fr, 24.05. 17:30 1013 - 0,6
Fr, 24.05. 17:00 1013 - 0,8
Fr, 24.05. 16:30 1013 - 0,7
Ortszeit Schneehöhe (cm)
Fr, 24.05. 14:00 -
Fr, 24.05. 8:00 -
Fr, 24.05. 2:00 -
Do, 23.05. 20:00 -
Do, 23.05. 14:00 -
Do, 23.05. 8:00 -
Do, 23.05. 2:00 -
Mi, 22.05. 20:00 -
Ortszeit Schneehöhe (cm)
Fr, 24.05. 19:30 -
Fr, 24.05. 19:20 -
Fr, 24.05. 19:10 -
Fr, 24.05. 19:00 -
Fr, 24.05. 18:50 -
Fr, 24.05. 18:40 -
Fr, 24.05. 18:30 -
Fr, 24.05. 18:00 -
Fr, 24.05. 17:30 -
Fr, 24.05. 17:00 -
Fr, 24.05. 16:30 -
Link zu dieser Seite / Seite empfehlen

Das Wetter in ...